createdAt,value
2019-02-10T00:00:33.817Z,34.67
2019-02-10T00:05:40.183Z,37.87
2019-02-10T00:10:45.026Z,35.00
2019-02-10T00:15:49.765Z,34.63
2019-02-10T00:20:54.416Z,31.47
2019-02-10T00:25:59.150Z,31.87
2019-02-10T00:31:03.900Z,34.67
2019-02-10T00:36:08.846Z,38.93
2019-02-10T00:41:13.589Z,50.90
2019-02-10T00:46:18.633Z,30.63
2019-02-10T00:51:23.478Z,32.00
2019-02-10T00:56:28.223Z,30.87
2019-02-10T01:01:32.968Z,31.80
2019-02-10T01:06:41.540Z,31.77
2019-02-10T01:11:43.835Z,30.87
2019-02-10T01:16:48.524Z,30.97
2019-02-10T01:21:53.527Z,34.63
2019-02-10T01:26:58.321Z,31.10
2019-02-10T01:32:02.875Z,33.33
2019-02-10T01:37:07.588Z,32.00
2019-02-10T01:42:12.482Z,33.87
2019-02-10T01:47:18.095Z,29.67
2019-02-10T01:52:22.743Z,29.53
2019-02-10T01:57:28.110Z,33.23
2019-02-10T02:02:33.149Z,31.43
2019-02-10T02:07:38.812Z,30.83
2019-02-10T02:12:43.442Z,27.83
2019-02-10T02:17:48.503Z,26.47
2019-02-10T02:22:53.131Z,31.40
2019-02-10T02:27:57.886Z,30.87
2019-02-10T02:33:02.620Z,39.37
2019-02-10T02:38:07.155Z,27.60
2019-02-10T02:43:11.920Z,25.47
2019-02-10T02:48:16.649Z,27.13
2019-02-10T02:53:21.227Z,29.97
2019-02-10T02:58:25.929Z,35.27
2019-02-10T03:03:30.662Z,27.50
2019-02-10T03:08:35.430Z,24.87
2019-02-10T03:13:39.977Z,25.07
2019-02-10T03:18:52.817Z,21.77
2019-02-10T03:23:51.280Z,21.97
2019-02-10T03:28:55.813Z,23.70
2019-02-10T03:34:00.449Z,20.30
2019-02-10T03:39:05.821Z,21.97
2019-02-10T03:44:10.557Z,22.23
2019-02-10T03:49:15.198Z,31.70
2019-02-10T03:54:19.830Z,29.00
2019-02-10T03:59:24.580Z,29.93
2019-02-10T04:04:29.321Z,38.70
2019-02-10T04:09:33.959Z,34.07
2019-02-10T04:14:38.942Z,34.90
2019-02-10T04:19:43.656Z,41.83
2019-02-10T04:24:48.288Z,41.53
2019-02-10T04:29:54.057Z,43.83
2019-02-10T04:34:58.812Z,42.53
2019-02-10T04:40:03.545Z,38.60
2019-02-10T04:45:08.490Z,37.60
2019-02-10T04:50:13.123Z,32.73
2019-02-10T04:55:17.771Z,31.27
2019-02-10T05:00:22.504Z,34.93
2019-02-10T05:05:28.798Z,35.00
2019-02-10T05:10:33.535Z,38.40
2019-02-10T05:15:38.581Z,36.43
2019-02-10T05:20:43.426Z,37.03
2019-02-10T05:25:48.170Z,35.70
2019-02-10T05:30:52.808Z,38.17
2019-02-10T05:35:57.556Z,37.77
2019-02-10T05:41:02.297Z,52.00
2019-02-10T05:46:07.041Z,45.17
2019-02-10T05:51:11.781Z,46.67
2019-02-10T05:56:16.520Z,58.63
2019-02-10T06:01:57.924Z,117.83
2019-02-10T06:07:05.638Z,55.60
2019-02-10T06:12:10.219Z,55.63
2019-02-10T06:17:15.386Z,62.00
2019-02-10T06:22:20.177Z,97.87
2019-02-10T06:27:24.811Z,99.40
2019-02-10T06:32:29.551Z,97.60
2019-02-10T06:37:34.293Z,81.30
2019-02-10T06:42:39.037Z,80.63
2019-02-10T06:47:43.667Z,86.17
2019-02-10T06:52:48.619Z,92.07
2019-02-10T06:57:53.222Z,106.13
2019-02-10T07:03:31.491Z,147.33
2019-02-10T07:08:36.541Z,148.93
2019-02-10T07:13:46.914Z,125.93
2019-02-10T07:19:28.827Z,121.43
2019-02-10T07:24:45.680Z,127.40
2019-02-10T07:30:08.827Z,131.10
2019-02-10T07:35:32.767Z,141.83
2019-02-10T07:40:52.619Z,130.03
2019-02-10T07:46:23.676Z,121.90
2019-02-10T07:51:55.658Z,140.67
2019-02-10T07:57:11.867Z,91.87
2019-02-10T08:02:45.180Z,75.37
2019-02-10T08:07:58.709Z,65.10
2019-02-10T08:13:09.902Z,54.07
2019-02-10T08:18:18.062Z,54.37
2019-02-10T08:23:28.673Z,58.20
2019-02-10T08:28:36.342Z,61.43
2019-02-10T08:33:44.665Z,64.87
2019-02-10T08:39:12.240Z,67.10
2019-02-10T08:44:23.442Z,63.10
2019-02-10T08:49:47.674Z,63.13
2019-02-10T08:54:52.788Z,59.97
2019-02-10T08:59:57.529Z,65.17
2019-02-10T09:05:02.997Z,55.00
2019-02-10T09:10:11.940Z,58.40
2019-02-10T09:15:17.092Z,60.90
2019-02-10T09:20:22.137Z,59.83
2019-02-10T09:25:26.980Z,65.27
2019-02-10T09:30:31.721Z,65.17
2019-02-10T09:35:36.570Z,67.13
2019-02-10T09:40:41.412Z,75.43
2019-02-10T09:45:46.058Z,67.73
2019-02-10T09:50:52.535Z,70.13
2019-02-10T09:55:57.379Z,66.37
2019-02-10T10:01:02.535Z,69.20
2019-02-10T10:06:07.175Z,67.37
2019-02-10T10:11:11.920Z,63.70
2019-02-10T10:16:16.928Z,69.20
2019-02-10T10:21:21.709Z,69.53
2019-02-10T10:26:26.664Z,64.93
2019-02-10T10:31:31.399Z,53.87
2019-02-10T10:36:36.349Z,46.90
2019-02-10T10:41:41.096Z,44.17
2019-02-10T10:46:46.141Z,34.67
2019-02-10T10:51:50.798Z,20.40
2019-02-10T10:56:55.776Z,18.70
2019-02-10T11:02:01.090Z,13.43
2019-02-10T11:07:06.148Z,15.97
2019-02-10T11:12:11.695Z,17.13
2019-02-10T11:17:16.873Z,15.23
2019-02-10T11:22:23.037Z,14.13
2019-02-10T11:27:27.889Z,12.90
2019-02-10T11:32:32.827Z,14.87
2019-02-10T11:37:37.777Z,10.27
2019-02-10T11:42:42.514Z,6.47
2019-02-10T11:47:47.160Z,8.53
2019-02-10T11:52:51.702Z,15.37
2019-02-10T11:57:56.442Z,10.70
2019-02-10T12:03:01.387Z,5.00
2019-02-10T12:08:06.133Z,8.13
2019-02-10T12:13:11.080Z,4.50
2019-02-10T12:18:16.226Z,5.87
2019-02-10T12:23:21.179Z,5.30
2019-02-10T12:28:25.920Z,6.27
2019-02-10T12:33:30.770Z,6.63
2019-02-10T12:38:35.620Z,10.20
2019-02-10T12:43:40.705Z,11.90
2019-02-10T12:48:45.511Z,8.37
2019-02-10T12:53:50.251Z,7.03
2019-02-10T12:58:55.923Z,7.67
2019-02-10T13:04:01.356Z,6.73
2019-02-10T13:09:08.577Z,8.83
2019-02-10T13:14:14.142Z,11.13
2019-02-10T13:19:20.555Z,8.40
2019-02-10T13:24:26.118Z,7.50
2019-02-10T13:29:31.135Z,6.97
2019-02-10T13:34:35.964Z,7.47
2019-02-10T13:39:43.799Z,10.93
2019-02-10T13:44:48.986Z,10.20
2019-02-10T13:49:54.516Z,10.07
2019-02-10T13:54:59.583Z,11.00
2019-02-10T14:00:09.332Z,12.57
2019-02-10T14:05:13.978Z,13.80
2019-02-10T14:10:25.300Z,15.90
2019-02-10T14:15:26.014Z,20.83
2019-02-10T14:20:30.660Z,14.90
2019-02-10T14:25:35.396Z,19.00
2019-02-10T14:30:40.556Z,11.13
2019-02-10T14:35:45.296Z,9.23
2019-02-10T14:40:50.038Z,6.77
2019-02-10T14:45:54.998Z,38.80
2019-02-10T14:51:01.230Z,11.17
2019-02-10T14:56:06.998Z,8.93
2019-02-10T15:01:11.992Z,8.77
2019-02-10T15:06:17.128Z,7.63
2019-02-10T15:11:24.550Z,7.17
2019-02-10T15:16:29.494Z,7.53
2019-02-10T15:21:34.335Z,8.23
2019-02-10T15:26:41.413Z,11.63
2019-02-10T15:31:46.078Z,8.83
2019-02-10T15:36:51.430Z,9.67
2019-02-10T15:41:56.175Z,14.93
2019-02-10T15:47:00.818Z,14.37
2019-02-10T15:52:07.083Z,19.60
2019-02-10T15:57:12.570Z,20.07
2019-02-10T16:02:17.447Z,15.90
2019-02-10T16:07:22.560Z,17.23
2019-02-10T16:12:28.121Z,12.57
2019-02-10T16:17:33.473Z,11.67
2019-02-10T16:22:38.435Z,12.30
2019-02-10T16:27:43.580Z,17.53
2019-02-10T16:32:50.378Z,25.97
2019-02-10T16:37:56.719Z,36.43
2019-02-10T16:43:02.928Z,34.27
2019-02-10T16:48:08.074Z,32.10
2019-02-10T16:53:15.372Z,37.00
2019-02-10T16:58:24.454Z,33.47
2019-02-10T17:03:32.116Z,39.30
2019-02-10T17:08:38.875Z,24.33
2019-02-10T17:13:45.409Z,21.83
2019-02-10T17:18:50.256Z,22.07
2019-02-10T17:23:55.706Z,25.30
2019-02-10T17:29:01.716Z,25.40
2019-02-10T17:34:07.393Z,23.37
2019-02-10T17:39:13.472Z,26.70
2019-02-10T17:44:18.175Z,22.70
2019-02-10T17:49:22.911Z,21.07
2019-02-10T17:54:27.553Z,18.03
2019-02-10T17:59:32.402Z,21.57
2019-02-10T18:04:37.739Z,22.50
2019-02-10T18:09:42.705Z,21.00
2019-02-10T18:15:01.273Z,22.17
2019-02-10T18:20:21.618Z,22.07
2019-02-10T18:25:46.085Z,31.63
2019-02-10T18:31:01.271Z,23.07
2019-02-10T18:36:13.928Z,23.33
2019-02-10T18:41:23.170Z,24.00
2019-02-10T18:46:39.491Z,34.03
2019-02-10T18:51:46.433Z,34.63
2019-02-10T18:56:58.800Z,29.33
2019-02-10T19:02:14.896Z,25.53
2019-02-10T19:07:21.273Z,27.73
2019-02-10T19:12:36.560Z,24.87
2019-02-10T19:17:48.673Z,26.63
2019-02-10T19:23:00.841Z,23.80
2019-02-10T19:28:22.427Z,26.20
2019-02-10T19:33:46.933Z,37.23
2019-02-10T19:39:02.327Z,40.90
2019-02-10T19:44:10.472Z,46.97
2019-02-10T19:49:23.177Z,53.17
2019-02-10T19:54:29.719Z,33.60
2019-02-10T19:59:52.427Z,42.73
2019-02-10T20:05:10.999Z,46.40
2019-02-10T20:10:18.173Z,38.37
2019-02-10T20:15:26.921Z,35.73
2019-02-10T20:20:42.222Z,39.63
2019-02-10T20:26:04.617Z,33.87
2019-02-10T20:31:11.074Z,32.63
2019-02-10T20:36:17.230Z,28.70
2019-02-10T20:41:27.072Z,22.97
2019-02-10T20:46:36.059Z,23.30
2019-02-10T20:51:54.711Z,28.77
2019-02-10T20:57:06.839Z,40.33
2019-02-10T21:02:15.996Z,35.60
2019-02-10T21:07:40.278Z,37.60
2019-02-10T21:12:50.647Z,36.10
2019-02-10T21:17:59.907Z,35.27
2019-02-10T21:23:06.074Z,35.43
2019-02-10T21:28:19.212Z,51.93
2019-02-10T21:33:25.786Z,36.60
2019-02-10T21:38:31.977Z,35.53
2019-02-10T21:43:44.102Z,42.63
2019-02-10T21:48:50.372Z,37.43
2019-02-10T21:53:54.951Z,41.57
2019-02-10T21:58:59.550Z,25.03
2019-02-10T22:04:04.288Z,23.83
2019-02-10T22:09:08.931Z,23.73
2019-02-10T22:14:14.289Z,18.27
2019-02-10T22:19:19.030Z,23.00
2019-02-10T22:24:23.561Z,19.40
2019-02-10T22:29:28.217Z,20.50
2019-02-10T22:34:32.951Z,22.00
2019-02-10T22:39:37.798Z,17.47
2019-02-10T22:44:42.540Z,18.80
2019-02-10T22:49:47.383Z,18.13
2019-02-10T22:54:52.026Z,18.97
2019-02-10T22:59:56.869Z,22.30
2019-02-10T23:05:02.418Z,21.50
2019-02-10T23:10:09.075Z,19.90
2019-02-10T23:15:14.669Z,21.83
2019-02-10T23:20:19.324Z,22.83
2019-02-10T23:25:23.967Z,22.60
2019-02-10T23:30:28.597Z,24.77
2019-02-10T23:35:33.347Z,26.77
2019-02-10T23:40:38.296Z,31.40
2019-02-10T23:45:42.934Z,24.60
2019-02-10T23:50:47.511Z,19.23
2019-02-10T23:55:52.135Z,19.70
